createdAt,value
2024-01-11T00:00:50.104Z,839.00
2024-01-11T00:01:50.180Z,834.00
2024-01-11T00:02:50.134Z,824.00
2024-01-11T00:03:50.213Z,823.00
2024-01-11T00:04:50.272Z,818.00
2024-01-11T00:05:50.371Z,824.00
2024-01-11T00:06:50.307Z,820.00
2024-01-11T00:07:50.352Z,820.00
2024-01-11T00:08:51.348Z,805.00
2024-01-11T00:09:50.429Z,808.00
2024-01-11T00:10:50.465Z,815.00
2024-01-11T00:11:50.579Z,802.00
2024-01-11T00:12:50.544Z,800.00
2024-01-11T00:13:50.595Z,806.00
2024-01-11T00:14:50.610Z,799.00
2024-01-11T00:15:50.754Z,809.00
2024-01-11T00:16:50.729Z,806.00
2024-01-11T00:17:50.960Z,798.00
2024-01-11T00:18:51.443Z,783.00
2024-01-11T00:19:50.869Z,797.00
2024-01-11T00:20:51.043Z,789.00
2024-01-11T00:21:50.881Z,780.00
2024-01-11T00:22:51.090Z,784.00
2024-01-11T00:23:50.971Z,785.00
2024-01-11T00:24:51.051Z,783.00
2024-01-11T00:25:51.114Z,777.00
2024-01-11T00:26:51.096Z,773.00
2024-01-11T00:27:51.176Z,773.00
2024-01-11T00:28:51.341Z,769.00
2024-01-11T00:29:51.233Z,767.00
2024-01-11T00:30:51.344Z,768.00
2024-01-11T00:31:51.433Z,762.00
2024-01-11T00:32:51.441Z,769.00
2024-01-11T00:33:51.474Z,762.00
2024-01-11T00:34:51.552Z,763.00
2024-01-11T00:35:51.465Z,758.00
2024-01-11T00:36:51.550Z,757.00
2024-01-11T00:37:51.610Z,752.00
2024-01-11T00:38:51.604Z,749.00
2024-01-11T00:39:51.658Z,757.00
2024-01-11T00:40:51.719Z,750.00
2024-01-11T00:41:51.756Z,750.00
2024-01-11T00:42:51.821Z,744.00
2024-01-11T00:43:51.875Z,746.00
2024-01-11T00:44:51.894Z,739.00
2024-01-11T00:45:52.353Z,732.00
2024-01-11T00:46:51.971Z,732.00
2024-01-11T00:47:52.166Z,737.00
2024-01-11T00:48:56.338Z,733.00
2024-01-11T00:49:52.080Z,730.00
2024-01-11T00:50:52.064Z,734.00
2024-01-11T00:51:52.059Z,728.00
2024-01-11T00:52:52.065Z,726.00
2024-01-11T00:53:52.036Z,718.00
2024-01-11T00:54:52.072Z,724.00
2024-01-11T00:55:52.123Z,705.00
2024-01-11T00:56:52.097Z,703.00
2024-01-11T00:57:52.035Z,700.00
2024-01-11T00:58:52.081Z,719.00
2024-01-11T00:59:52.072Z,714.00
2024-01-11T01:00:52.399Z,705.00
2024-01-11T01:01:52.148Z,705.00
2024-01-11T01:02:52.060Z,708.00
2024-01-11T01:03:52.084Z,697.00
2024-01-11T01:04:52.109Z,697.00
2024-01-11T01:05:52.148Z,693.00
2024-01-11T01:06:52.126Z,693.00
2024-01-11T01:07:52.184Z,689.00
2024-01-11T01:08:52.268Z,681.00
2024-01-11T01:09:52.226Z,684.00
2024-01-11T01:10:52.307Z,684.00
2024-01-11T01:11:52.366Z,676.00
2024-01-11T01:12:52.411Z,686.00
2024-01-11T01:13:52.494Z,671.00
2024-01-11T01:14:52.485Z,676.00
2024-01-11T01:15:52.870Z,669.00
2024-01-11T01:16:52.663Z,666.00
2024-01-11T01:17:52.724Z,668.00
2024-01-11T01:18:52.765Z,667.00
2024-01-11T01:19:52.726Z,670.00
2024-01-11T01:20:52.872Z,673.00
2024-01-11T01:21:52.842Z,666.00
2024-01-11T01:22:52.907Z,661.00
2024-01-11T01:23:52.924Z,661.00
2024-01-11T01:24:53.032Z,664.00
2024-01-11T01:25:53.080Z,662.00
2024-01-11T01:26:53.069Z,662.00
2024-01-11T01:27:53.132Z,657.00
2024-01-11T01:28:53.241Z,663.00
2024-01-11T01:29:53.865Z,660.00
2024-01-11T01:30:53.494Z,657.00
2024-01-11T01:31:53.378Z,658.00
2024-01-11T01:32:53.547Z,657.00
2024-01-11T01:33:53.549Z,654.00
2024-01-11T01:34:53.580Z,657.00
2024-01-11T01:35:53.542Z,659.00
2024-01-11T01:36:53.602Z,653.00
2024-01-11T01:37:53.691Z,652.00
2024-01-11T01:38:53.715Z,654.00
2024-01-11T01:39:53.741Z,653.00
2024-01-11T01:40:53.784Z,650.00
2024-01-11T01:41:53.845Z,648.00
2024-01-11T01:42:53.882Z,650.00
2024-01-11T01:43:54.058Z,650.00
2024-01-11T01:44:54.012Z,646.00
2024-01-11T01:45:54.071Z,650.00
2024-01-11T01:46:54.193Z,645.00
2024-01-11T01:47:54.261Z,644.00
2024-01-11T01:48:54.295Z,644.00
2024-01-11T01:49:54.317Z,646.00
2024-01-11T01:50:54.371Z,642.00
2024-01-11T01:51:54.428Z,643.00
2024-01-11T01:52:54.563Z,642.00
2024-01-11T01:53:54.500Z,640.00
2024-01-11T01:54:54.553Z,641.00
2024-01-11T01:55:54.918Z,643.00
2024-01-11T01:56:54.673Z,641.00
2024-01-11T01:57:54.739Z,638.00
2024-01-11T01:58:54.917Z,637.00
2024-01-11T01:59:54.791Z,638.00
2024-01-11T02:00:54.892Z,634.00
2024-01-11T02:01:55.032Z,639.00
2024-01-11T02:02:56.028Z,636.00
2024-01-11T02:03:55.093Z,633.00
2024-01-11T02:04:55.128Z,634.00
2024-01-11T02:05:55.181Z,635.00
2024-01-11T02:06:55.145Z,632.00
2024-01-11T02:07:55.304Z,631.00
2024-01-11T02:08:55.295Z,630.00
2024-01-11T02:09:55.340Z,632.00
2024-01-11T02:10:55.401Z,632.00
2024-01-11T02:11:55.456Z,633.00
2024-01-11T02:12:55.497Z,623.00
2024-01-11T02:13:55.572Z,632.00
2024-01-11T02:14:55.623Z,626.00
2024-01-11T02:15:55.929Z,624.00
2024-01-11T02:16:55.721Z,626.00
2024-01-11T02:17:55.789Z,624.00
2024-01-11T02:18:55.878Z,622.00
2024-01-11T02:19:55.880Z,620.00
2024-01-11T02:20:55.970Z,625.00
2024-01-11T02:21:56.121Z,621.00
2024-01-11T02:22:56.059Z,621.00
2024-01-11T02:23:56.091Z,620.00
2024-01-11T02:24:56.155Z,622.00
2024-01-11T02:25:56.425Z,618.00
2024-01-11T02:26:56.254Z,616.00
2024-01-11T02:27:56.327Z,616.00
2024-01-11T02:28:56.398Z,617.00
2024-01-11T02:29:56.429Z,617.00
2024-01-11T02:30:56.516Z,617.00
2024-01-11T02:31:56.609Z,614.00
2024-01-11T02:32:56.891Z,614.00
2024-01-11T02:33:56.813Z,615.00
2024-01-11T02:34:56.737Z,616.00
2024-01-11T02:35:56.945Z,611.00
2024-01-11T02:36:56.848Z,613.00
2024-01-11T02:37:56.977Z,613.00
2024-01-11T02:38:56.932Z,613.00
2024-01-11T02:39:57.006Z,608.00
2024-01-11T02:40:57.099Z,609.00
2024-01-11T02:41:57.091Z,606.00
2024-01-11T02:42:57.159Z,607.00
2024-01-11T02:43:57.284Z,604.00
2024-01-11T02:44:57.309Z,605.00
2024-01-11T02:45:57.364Z,607.00
2024-01-11T02:46:57.437Z,606.00
2024-01-11T02:47:57.592Z,604.00
2024-01-11T02:48:57.558Z,603.00
2024-01-11T02:49:57.578Z,606.00
2024-01-11T02:50:57.610Z,606.00
2024-01-11T02:51:57.660Z,601.00
2024-01-11T02:52:57.759Z,603.00
2024-01-11T02:53:57.836Z,604.00
2024-01-11T02:54:57.851Z,600.00
2024-01-11T02:55:59.317Z,601.00
2024-01-11T02:56:57.982Z,604.00
2024-01-11T02:57:58.096Z,601.00
2024-01-11T02:58:58.148Z,602.00
2024-01-11T02:59:58.192Z,603.00
2024-01-11T03:00:58.357Z,604.00
2024-01-11T03:01:58.338Z,603.00
2024-01-11T03:02:58.407Z,605.00
2024-01-11T03:03:58.505Z,603.00
2024-01-11T03:04:58.524Z,605.00
2024-01-11T03:05:58.712Z,601.00
2024-01-11T03:06:58.655Z,603.00
2024-01-11T03:07:58.718Z,600.00
2024-01-11T03:08:58.718Z,607.00
2024-01-11T03:09:58.850Z,601.00
2024-01-11T03:10:58.911Z,602.00
2024-01-11T03:11:58.938Z,601.00
2024-01-11T03:12:59.010Z,600.00
2024-01-11T03:13:59.113Z,600.00
2024-01-11T03:14:59.158Z,601.00
2024-01-11T03:15:59.228Z,604.00
2024-01-11T03:16:59.303Z,606.00
2024-01-11T03:17:59.445Z,604.00
2024-01-11T03:18:59.566Z,601.00
2024-01-11T03:19:59.520Z,606.00
2024-01-11T03:20:59.546Z,604.00
2024-01-11T03:21:59.573Z,604.00
2024-01-11T03:22:59.639Z,603.00
2024-01-11T03:23:59.746Z,602.00
2024-01-11T03:24:59.749Z,604.00
2024-01-11T03:25:59.879Z,605.00
2024-01-11T03:26:59.918Z,605.00
2024-01-11T03:27:59.974Z,603.00
2024-01-11T03:29:00.064Z,604.00
2024-01-11T03:30:00.160Z,603.00
2024-01-11T03:31:00.254Z,601.00
2024-01-11T03:32:00.361Z,602.00
2024-01-11T03:33:00.615Z,601.00
2024-01-11T03:34:00.503Z,603.00
2024-01-11T03:35:00.532Z,605.00
2024-01-11T03:36:00.523Z,599.00
2024-01-11T03:37:00.548Z,604.00
2024-01-11T03:38:00.642Z,605.00
2024-01-11T03:39:00.659Z,603.00
2024-01-11T03:40:00.703Z,600.00
2024-01-11T03:41:00.859Z,603.00
2024-01-11T03:42:00.901Z,602.00
2024-01-11T03:43:00.913Z,601.00
2024-01-11T03:45:01.048Z,603.00
2024-01-11T03:46:01.120Z,605.00
2024-01-11T03:47:01.164Z,603.00
2024-01-11T03:48:01.236Z,605.00
2024-01-11T03:49:01.279Z,603.00
2024-01-11T03:50:01.414Z,602.00
2024-01-11T03:51:01.418Z,602.00
2024-01-11T03:52:01.453Z,601.00
2024-01-11T03:53:01.528Z,601.00
2024-01-11T03:54:01.654Z,603.00
2024-01-11T03:55:01.658Z,604.00
2024-01-11T03:56:01.979Z,606.00
2024-01-11T03:57:01.836Z,602.00
2024-01-11T03:58:01.823Z,601.00
2024-01-11T03:59:01.986Z,602.00
2024-01-11T04:00:01.943Z,605.00
2024-01-11T04:01:02.531Z,601.00
2024-01-11T04:02:02.197Z,600.00
2024-01-11T04:03:02.220Z,604.00
2024-01-11T04:04:02.336Z,603.00
2024-01-11T04:05:02.381Z,602.00
2024-01-11T04:06:02.433Z,604.00
2024-01-11T04:07:02.465Z,604.00
2024-01-11T04:08:02.533Z,605.00
2024-01-11T04:09:02.572Z,607.00
2024-01-11T04:10:02.656Z,601.00
2024-01-11T04:11:02.965Z,604.00
2024-01-11T04:12:02.736Z,602.00
2024-01-11T04:13:02.876Z,600.00
2024-01-11T04:14:03.016Z,602.00
2024-01-11T04:15:02.966Z,602.00
2024-01-11T04:16:03.428Z,600.00
2024-01-11T04:17:03.148Z,600.00
2024-01-11T04:18:03.344Z,600.00
2024-01-11T04:19:03.243Z,601.00
2024-01-11T04:20:10.982Z,600.00
2024-01-11T04:21:10.920Z,600.00
2024-01-11T04:22:11.110Z,600.00
2024-01-11T04:23:10.997Z,600.00
2024-01-11T04:24:10.956Z,600.00
2024-01-11T04:25:10.971Z,600.00
2024-01-11T04:26:10.993Z,601.00
2024-01-11T04:27:11.003Z,602.00
2024-01-11T04:28:10.970Z,603.00
2024-01-11T04:29:11.009Z,602.00
2024-01-11T04:30:11.005Z,603.00
2024-01-11T04:31:18.731Z,600.00
2024-01-11T04:32:18.775Z,600.00
2024-01-11T04:33:18.858Z,600.00
2024-01-11T04:34:18.856Z,600.00
2024-01-11T04:35:18.806Z,600.00
2024-01-11T04:36:18.764Z,602.00
2024-01-11T04:37:18.782Z,600.00
2024-01-11T04:38:18.788Z,604.00
2024-01-11T04:39:18.745Z,602.00
2024-01-11T04:40:18.774Z,601.00
2024-01-11T04:41:20.333Z,602.00
2024-01-11T04:42:18.759Z,607.00
2024-01-11T04:43:18.766Z,604.00
2024-01-11T04:44:18.780Z,603.00
2024-01-11T04:45:18.737Z,602.00
2024-01-11T04:46:18.809Z,600.00
2024-01-11T04:47:18.776Z,605.00
2024-01-11T04:48:18.809Z,603.00
2024-01-11T04:49:18.776Z,603.00
2024-01-11T04:50:21.600Z,601.00
2024-01-11T04:51:18.772Z,601.00
2024-01-11T04:52:18.759Z,601.00
2024-01-11T04:53:18.798Z,602.00
2024-01-11T04:54:18.777Z,601.00
2024-01-11T04:55:18.753Z,603.00
2024-01-11T04:56:18.793Z,600.00
2024-01-11T04:57:18.754Z,601.00
2024-01-11T04:58:18.779Z,607.00
2024-01-11T04:59:18.810Z,601.00
2024-01-11T05:00:18.762Z,604.00
2024-01-11T05:01:18.946Z,604.00
2024-01-11T05:02:18.822Z,602.00
2024-01-11T05:03:18.777Z,605.00
2024-01-11T05:04:18.732Z,604.00
2024-01-11T05:05:18.794Z,609.00
2024-01-11T05:06:18.829Z,602.00
2024-01-11T05:07:18.765Z,604.00
2024-01-11T05:08:18.813Z,602.00
2024-01-11T05:09:18.763Z,606.00
2024-01-11T05:10:18.793Z,601.00
2024-01-11T05:11:18.926Z,604.00
2024-01-11T05:12:18.797Z,606.00
2024-01-11T05:13:18.798Z,604.00
2024-01-11T05:14:18.905Z,601.00
2024-01-11T05:15:18.769Z,604.00
2024-01-11T05:16:18.785Z,601.00
2024-01-11T05:17:18.865Z,601.00
2024-01-11T05:18:18.974Z,605.00
2024-01-11T05:19:18.915Z,604.00
2024-01-11T05:20:18.818Z,606.00
2024-01-11T05:21:18.860Z,607.00
2024-01-11T05:22:18.790Z,603.00
2024-01-11T05:23:18.810Z,603.00
2024-01-11T05:24:18.860Z,604.00
2024-01-11T05:25:18.952Z,611.00
2024-01-11T05:26:19.060Z,605.00
2024-01-11T05:27:19.013Z,605.00
2024-01-11T05:28:19.048Z,602.00
2024-01-11T05:29:19.141Z,601.00
2024-01-11T05:30:19.257Z,609.00
2024-01-11T05:31:19.602Z,604.00
2024-01-11T05:32:19.392Z,603.00
2024-01-11T05:33:19.485Z,605.00
2024-01-11T05:34:19.382Z,607.00
2024-01-11T05:35:20.339Z,602.00
2024-01-11T05:36:19.489Z,604.00
2024-01-11T05:37:19.549Z,605.00
2024-01-11T05:38:19.629Z,604.00
2024-01-11T05:39:19.665Z,604.00
2024-01-11T05:40:19.704Z,604.00
2024-01-11T05:41:19.871Z,600.00
2024-01-11T05:42:19.832Z,604.00
2024-01-11T05:43:19.882Z,603.00
2024-01-11T05:44:20.007Z,602.00
2024-01-11T05:45:24.506Z,603.00
2024-01-11T05:46:21.028Z,603.00
2024-01-11T05:47:20.071Z,603.00
2024-01-11T05:48:20.067Z,603.00
2024-01-11T05:49:20.036Z,603.00
2024-01-11T05:50:20.047Z,603.00
2024-01-11T05:51:20.042Z,601.00
2024-01-11T05:52:20.003Z,604.00
2024-01-11T05:53:20.037Z,600.00
2024-01-11T05:54:20.050Z,601.00
2024-01-11T05:55:20.108Z,604.00
2024-01-11T05:56:20.190Z,605.00
2024-01-11T05:57:20.218Z,602.00
2024-01-11T05:58:20.216Z,603.00
2024-01-11T05:59:20.388Z,602.00
2024-01-11T06:00:20.390Z,605.00
2024-01-11T06:01:20.412Z,601.00
2024-01-11T06:02:20.485Z,602.00
2024-01-11T06:03:20.512Z,601.00
2024-01-11T06:04:20.576Z,600.00
2024-01-11T06:05:20.706Z,605.00
2024-01-11T06:06:20.780Z,603.00
2024-01-11T06:07:20.742Z,604.00
2024-01-11T06:08:20.858Z,604.00
2024-01-11T06:09:20.913Z,604.00
2024-01-11T06:10:20.907Z,601.00
2024-01-11T06:11:20.998Z,603.00
2024-01-11T06:12:21.040Z,601.00
2024-01-11T06:13:21.082Z,604.00
2024-01-11T06:14:21.188Z,604.00
2024-01-11T06:15:21.206Z,605.00
2024-01-11T06:16:21.294Z,605.00
2024-01-11T06:17:21.865Z,600.00
2024-01-11T06:18:21.529Z,606.00
2024-01-11T06:19:21.477Z,603.00
2024-01-11T06:20:21.524Z,602.00
2024-01-11T06:21:21.575Z,603.00
2024-01-11T06:22:21.613Z,603.00
2024-01-11T06:23:21.726Z,601.00
2024-01-11T06:24:21.746Z,602.00
2024-01-11T06:25:21.790Z,603.00
2024-01-11T06:26:21.882Z,608.00
2024-01-11T06:27:21.903Z,605.00
2024-01-11T06:28:21.933Z,600.00
2024-01-11T06:29:22.053Z,607.00
2024-01-11T06:30:22.066Z,605.00
2024-01-11T06:31:22.109Z,602.00
2024-01-11T06:32:22.200Z,607.00
2024-01-11T06:33:22.375Z,602.00
2024-01-11T06:34:22.280Z,604.00
2024-01-11T06:35:22.342Z,600.00
2024-01-11T06:36:22.842Z,601.00
2024-01-11T06:37:22.440Z,605.00
2024-01-11T06:38:22.527Z,600.00
2024-01-11T06:39:22.551Z,605.00
2024-01-11T06:40:22.610Z,607.00
2024-01-11T06:41:22.665Z,608.00
2024-01-11T06:42:22.746Z,605.00
2024-01-11T06:43:22.794Z,606.00
2024-01-11T06:44:22.860Z,607.00
2024-01-11T06:45:22.894Z,604.00
2024-01-11T06:46:22.949Z,603.00
2024-01-11T06:47:23.299Z,615.00
2024-01-11T06:48:23.223Z,614.00
2024-01-11T06:49:23.310Z,508.00
2024-01-11T06:50:23.225Z,581.00
2024-01-11T06:51:23.322Z,641.00
2024-01-11T06:52:23.372Z,668.00
2024-01-11T06:53:23.450Z,683.00
2024-01-11T06:54:23.485Z,676.00
2024-01-11T06:55:23.550Z,667.00
2024-01-11T06:56:23.631Z,664.00
2024-01-11T06:57:23.655Z,671.00
2024-01-11T06:58:23.719Z,711.00
2024-01-11T06:59:25.970Z,712.00
2024-01-11T07:00:23.779Z,722.00
2024-01-11T07:01:23.799Z,738.00
2024-01-11T07:02:23.795Z,752.00
2024-01-11T07:03:23.859Z,762.00
2024-01-11T07:04:23.750Z,764.00
2024-01-11T07:05:23.861Z,787.00
2024-01-11T07:06:23.986Z,784.00
2024-01-11T07:07:23.785Z,807.00
2024-01-11T07:08:23.836Z,823.00
2024-01-11T07:09:23.796Z,828.00
2024-01-11T07:10:23.787Z,856.00
2024-01-11T07:11:23.916Z,884.00
2024-01-11T07:12:23.782Z,907.00
2024-01-11T07:13:23.758Z,932.00
2024-01-11T07:14:23.798Z,945.00
2024-01-11T07:15:23.777Z,965.00
2024-01-11T07:16:23.836Z,981.00
2024-01-11T07:17:23.819Z,1003.00
2024-01-11T07:18:23.875Z,1018.00
2024-01-11T07:19:23.916Z,1044.00
2024-01-11T07:20:24.006Z,1055.00
2024-01-11T07:21:23.877Z,1064.00
2024-01-11T07:22:23.789Z,1084.00
2024-01-11T07:23:23.814Z,1100.00
2024-01-11T07:24:23.816Z,1107.00
2024-01-11T07:25:23.791Z,1126.00
2024-01-11T07:26:23.882Z,1140.00
2024-01-11T07:27:23.825Z,1154.00
2024-01-11T07:28:23.784Z,1161.00
2024-01-11T07:29:23.814Z,1170.00
2024-01-11T07:30:23.895Z,1187.00
2024-01-11T07:31:23.890Z,1195.00
2024-01-11T07:32:23.941Z,1203.00
2024-01-11T07:33:24.023Z,1214.00
2024-01-11T07:34:23.947Z,1223.00
2024-01-11T07:35:23.869Z,1243.00
2024-01-11T07:36:23.824Z,1253.00
2024-01-11T07:37:23.779Z,1265.00
2024-01-11T07:38:23.822Z,1271.00
2024-01-11T07:39:23.824Z,1275.00
2024-01-11T07:40:23.824Z,1293.00
2024-01-11T07:41:23.969Z,1304.00
2024-01-11T07:42:23.819Z,1327.00
2024-01-11T07:43:27.007Z,1340.00
2024-01-11T07:44:24.846Z,1340.00
2024-01-11T07:45:23.850Z,1341.00
2024-01-11T07:46:32.978Z,1349.00
2024-01-11T07:47:24.873Z,1341.00
2024-01-11T07:48:23.909Z,1345.00
2024-01-11T07:49:23.908Z,1356.00
2024-01-11T07:50:23.828Z,1372.00
2024-01-11T07:51:23.986Z,1401.00
2024-01-11T07:52:23.920Z,1416.00
2024-01-11T07:53:23.834Z,1414.00
2024-01-11T07:54:23.826Z,1425.00
2024-01-11T07:55:23.849Z,1421.00
2024-01-11T07:56:23.930Z,1420.00
2024-01-11T07:57:23.834Z,1413.00
2024-01-11T07:58:23.825Z,1425.00
2024-01-11T07:59:23.861Z,1431.00
2024-01-11T08:00:23.842Z,1447.00
2024-01-11T08:01:23.878Z,1488.00
2024-01-11T08:02:23.909Z,1588.00
2024-01-11T08:03:23.886Z,1562.00
2024-01-11T08:04:23.876Z,1493.00
2024-01-11T08:05:24.088Z,1402.00
2024-01-11T08:06:24.135Z,1316.00
2024-01-11T08:07:24.056Z,1264.00
2024-01-11T08:08:24.132Z,1218.00
2024-01-11T08:09:24.220Z,1158.00
2024-01-11T08:10:24.243Z,1120.00
2024-01-11T08:11:24.302Z,1069.00
2024-01-11T08:12:24.304Z,1022.00
2024-01-11T08:13:24.347Z,1004.00
2024-01-11T08:14:24.359Z,978.00
2024-01-11T08:15:24.368Z,949.00
2024-01-11T08:16:24.873Z,952.00
2024-01-11T08:17:24.505Z,948.00
2024-01-11T08:18:24.569Z,945.00
2024-01-11T08:19:24.677Z,947.00
2024-01-11T08:20:24.753Z,949.00
2024-01-11T08:21:24.721Z,972.00
2024-01-11T08:22:27.640Z,964.00
2024-01-11T08:23:24.829Z,970.00
2024-01-11T08:24:24.727Z,983.00
2024-01-11T08:25:24.770Z,994.00
2024-01-11T08:26:24.789Z,1000.00
2024-01-11T08:27:24.927Z,1032.00
2024-01-11T08:28:24.759Z,1047.00
2024-01-11T08:29:24.782Z,1047.00
2024-01-11T08:30:24.814Z,1049.00
2024-01-11T08:31:24.790Z,1046.00
2024-01-11T08:32:31.770Z,1061.00
2024-01-11T08:33:25.887Z,1061.00
2024-01-11T08:34:24.958Z,1064.00
2024-01-11T08:35:24.806Z,1066.00
2024-01-11T08:36:24.774Z,1076.00
2024-01-11T08:37:24.878Z,1100.00
2024-01-11T08:38:25.794Z,1062.00
2024-01-11T08:39:24.792Z,1068.00
2024-01-11T08:40:24.778Z,1082.00
2024-01-11T08:41:24.783Z,1100.00
2024-01-11T08:42:24.922Z,1125.00
2024-01-11T08:43:24.783Z,1138.00
2024-01-11T08:44:24.794Z,1136.00
2024-01-11T08:45:24.821Z,1139.00
2024-01-11T08:46:24.909Z,1146.00
2024-01-11T08:48:25.125Z,1154.00
2024-01-11T08:49:25.475Z,1162.00
2024-01-11T08:50:26.094Z,1171.00
2024-01-11T08:51:25.250Z,1175.00
2024-01-11T08:52:25.292Z,1181.00
2024-01-11T08:53:25.408Z,1187.00
2024-01-11T08:54:25.462Z,1188.00
2024-01-11T08:55:25.482Z,1179.00
2024-01-11T08:56:25.693Z,1178.00
2024-01-11T08:57:25.648Z,1178.00
2024-01-11T08:58:26.740Z,1178.00
2024-01-11T08:59:25.734Z,1173.00
2024-01-11T09:00:25.758Z,1169.00
2024-01-11T09:01:25.829Z,1158.00
2024-01-11T09:02:27.553Z,1171.00
2024-01-11T09:03:26.034Z,1167.00
2024-01-11T09:04:26.045Z,1168.00
2024-01-11T09:05:26.103Z,1164.00
2024-01-11T09:06:26.164Z,1181.00
2024-01-11T09:07:26.164Z,1176.00
2024-01-11T09:08:26.288Z,1175.00
2024-01-11T09:09:26.256Z,1169.00
2024-01-11T09:10:26.285Z,1175.00
2024-01-11T09:11:26.398Z,1171.00
2024-01-11T09:12:26.441Z,1176.00
2024-01-11T09:13:26.435Z,1175.00
2024-01-11T09:14:26.543Z,1176.00
2024-01-11T09:15:26.536Z,1179.00
2024-01-11T09:16:26.590Z,1180.00
2024-01-11T09:17:26.891Z,1178.00
2024-01-11T09:18:26.793Z,1188.00
2024-01-11T09:19:26.802Z,1180.00
2024-01-11T09:20:26.813Z,1184.00
2024-01-11T09:21:26.843Z,1192.00
2024-01-11T09:22:26.877Z,1187.00
2024-01-11T09:23:26.953Z,1189.00
2024-01-11T09:24:29.191Z,1190.00
2024-01-11T09:25:27.025Z,1194.00
2024-01-11T09:26:27.040Z,1192.00
2024-01-11T09:27:27.034Z,1195.00
2024-01-11T09:28:27.029Z,1193.00
2024-01-11T09:29:26.980Z,1198.00
2024-01-11T09:30:27.023Z,1201.00
2024-01-11T09:31:27.066Z,1205.00
2024-01-11T09:32:27.214Z,1196.00
2024-01-11T09:33:27.205Z,1194.00
2024-01-11T09:34:27.131Z,1203.00
2024-01-11T09:35:27.079Z,1198.00
2024-01-11T09:36:27.038Z,1216.00
2024-01-11T09:37:27.398Z,1217.00
2024-01-11T09:38:27.070Z,1216.00
2024-01-11T09:39:27.192Z,1216.00
2024-01-11T09:40:27.011Z,1216.00
2024-01-11T09:41:27.147Z,1222.00
2024-01-11T09:42:27.038Z,1222.00
2024-01-11T09:43:27.019Z,1229.00
2024-01-11T09:44:27.128Z,1233.00
2024-01-11T09:45:27.123Z,1239.00
2024-01-11T09:46:27.059Z,1240.00
2024-01-11T09:47:27.559Z,1235.00
2024-01-11T09:48:27.051Z,1240.00
2024-01-11T09:49:27.105Z,1254.00
2024-01-11T09:50:27.137Z,1243.00
2024-01-11T09:51:27.054Z,1249.00
2024-01-11T09:52:27.048Z,1243.00
2024-01-11T09:53:27.130Z,1246.00
2024-01-11T09:54:27.151Z,1227.00
2024-01-11T09:55:27.183Z,1223.00
2024-01-11T09:56:27.252Z,1218.00
2024-01-11T09:57:27.446Z,1235.00
2024-01-11T09:58:27.377Z,1237.00
2024-01-11T09:59:27.501Z,1211.00
2024-01-11T10:00:27.628Z,1193.00
2024-01-11T10:01:27.672Z,1174.00
2024-01-11T10:02:28.243Z,1141.00
2024-01-11T10:03:27.804Z,1124.00
2024-01-11T10:04:27.830Z,1119.00
2024-01-11T10:05:27.955Z,1111.00
2024-01-11T10:06:27.973Z,1101.00
2024-01-11T10:07:28.061Z,1091.00
2024-01-11T10:08:28.149Z,1080.00
2024-01-11T10:09:28.174Z,1079.00
2024-01-11T10:10:28.260Z,1078.00
2024-01-11T10:11:28.333Z,1063.00
2024-01-11T10:12:28.410Z,1056.00
2024-01-11T10:13:28.439Z,1060.00
2024-01-11T10:14:28.553Z,1046.00
2024-01-11T10:15:28.603Z,1033.00
2024-01-11T10:16:28.627Z,1026.00
2024-01-11T10:17:29.103Z,1016.00
2024-01-11T10:18:29.028Z,1017.00
2024-01-11T10:19:29.122Z,1021.00
2024-01-11T10:20:29.126Z,1002.00
2024-01-11T10:21:28.960Z,998.00
2024-01-11T10:22:29.018Z,1010.00
2024-01-11T10:23:29.095Z,1023.00
2024-01-11T10:24:29.125Z,1061.00
2024-01-11T10:25:29.179Z,1061.00
2024-01-11T10:26:29.334Z,1046.00
2024-01-11T10:27:29.345Z,1058.00
2024-01-11T10:28:29.454Z,1057.00
2024-01-11T10:29:29.517Z,1061.00
2024-01-11T10:30:29.695Z,1038.00
2024-01-11T10:31:29.661Z,1039.00
2024-01-11T10:32:30.134Z,1042.00
2024-01-11T10:33:29.833Z,1038.00
2024-01-11T10:34:29.837Z,1033.00
2024-01-11T10:35:29.920Z,1036.00
2024-01-11T10:36:29.966Z,1018.00
2024-01-11T10:37:30.039Z,1019.00
2024-01-11T10:38:30.157Z,1001.00
2024-01-11T10:39:30.202Z,1001.00
2024-01-11T10:40:30.230Z,996.00
2024-01-11T10:41:30.361Z,1002.00
2024-01-11T10:42:30.358Z,997.00
2024-01-11T10:43:30.435Z,986.00
2024-01-11T10:44:30.678Z,972.00
2024-01-11T10:45:30.555Z,986.00
2024-01-11T10:46:30.636Z,961.00
2024-01-11T10:47:30.797Z,978.00
2024-01-11T10:48:30.797Z,997.00
2024-01-11T10:49:30.943Z,1018.00
2024-01-11T10:50:30.947Z,1033.00
2024-01-11T10:51:30.997Z,1039.00
2024-01-11T10:52:31.456Z,1030.00
2024-01-11T10:53:31.739Z,1030.00
2024-01-11T10:54:31.065Z,1025.00
2024-01-11T10:55:31.434Z,1030.00
2024-01-11T10:56:31.146Z,1003.00
2024-01-11T10:57:31.489Z,986.00
2024-01-11T10:58:31.107Z,964.00
2024-01-11T10:59:31.168Z,954.00
2024-01-11T11:00:31.212Z,953.00
2024-01-11T11:01:31.135Z,959.00
2024-01-11T11:02:31.580Z,941.00
2024-01-11T11:03:31.253Z,929.00
2024-01-11T11:04:31.258Z,922.00
2024-01-11T11:05:31.479Z,913.00
2024-01-11T11:06:31.531Z,908.00
2024-01-11T11:07:31.492Z,909.00
2024-01-11T11:08:31.449Z,903.00
2024-01-11T11:09:31.521Z,888.00
2024-01-11T11:10:31.570Z,888.00
2024-01-11T11:11:31.609Z,877.00
2024-01-11T11:12:31.974Z,869.00
2024-01-11T11:13:31.741Z,865.00
2024-01-11T11:14:31.807Z,861.00
2024-01-11T11:15:31.865Z,856.00
2024-01-11T11:16:31.903Z,845.00
2024-01-11T11:17:32.557Z,838.00
2024-01-11T11:18:32.104Z,828.00
2024-01-11T11:19:32.105Z,840.00
2024-01-11T11:20:32.218Z,814.00
2024-01-11T11:21:32.298Z,804.00
2024-01-11T11:22:32.456Z,812.00
2024-01-11T11:23:32.369Z,813.00
2024-01-11T11:24:32.363Z,816.00
2024-01-11T11:25:32.340Z,803.00
2024-01-11T11:26:32.409Z,799.00
2024-01-11T11:27:32.497Z,771.00
2024-01-11T11:28:32.348Z,765.00
2024-01-11T11:29:32.473Z,768.00
2024-01-11T11:30:32.416Z,760.00
2024-01-11T11:31:32.371Z,759.00
2024-01-11T11:32:32.626Z,745.00
2024-01-11T11:33:32.531Z,749.00
2024-01-11T11:34:32.592Z,743.00
2024-01-11T11:35:32.533Z,731.00
2024-01-11T11:36:32.545Z,717.00
2024-01-11T11:37:33.005Z,723.00
2024-01-11T11:38:32.745Z,725.00
2024-01-11T11:39:33.493Z,725.00
2024-01-11T11:40:32.608Z,719.00
2024-01-11T11:41:32.688Z,710.00
2024-01-11T11:42:33.055Z,684.00
2024-01-11T11:43:32.690Z,685.00
2024-01-11T11:44:32.689Z,663.00
2024-01-11T11:45:32.645Z,661.00
2024-01-11T11:46:32.667Z,657.00
2024-01-11T11:47:33.084Z,659.00
2024-01-11T11:48:32.987Z,660.00
2024-01-11T11:49:32.868Z,657.00
2024-01-11T11:50:32.820Z,659.00
2024-01-11T11:51:32.824Z,658.00
2024-01-11T11:52:32.970Z,654.00
2024-01-11T11:53:32.946Z,649.00
2024-01-11T11:54:32.998Z,650.00
2024-01-11T11:55:33.039Z,655.00
2024-01-11T11:56:33.137Z,651.00
2024-01-11T11:57:33.609Z,647.00
2024-01-11T11:58:33.176Z,646.00
2024-01-11T11:59:33.286Z,645.00
2024-01-11T12:00:33.329Z,640.00
2024-01-11T12:01:33.368Z,636.00
2024-01-11T12:02:33.467Z,637.00
2024-01-11T12:03:33.447Z,633.00
2024-01-11T12:04:33.491Z,636.00
2024-01-11T12:05:33.588Z,637.00
2024-01-11T12:06:33.601Z,640.00
2024-01-11T12:07:34.005Z,637.00
2024-01-11T12:08:33.655Z,636.00
2024-01-11T12:09:33.634Z,632.00
2024-01-11T12:10:33.706Z,630.00
2024-01-11T12:11:33.673Z,628.00
2024-01-11T12:12:34.026Z,635.00
2024-01-11T12:13:33.684Z,631.00
2024-01-11T12:14:33.772Z,628.00
2024-01-11T12:15:33.750Z,626.00
2024-01-11T12:16:33.717Z,622.00
2024-01-11T12:17:34.143Z,621.00
2024-01-11T12:18:33.921Z,618.00
2024-01-11T12:19:34.048Z,618.00
2024-01-11T12:20:33.940Z,617.00
2024-01-11T12:21:33.817Z,615.00
2024-01-11T12:22:33.997Z,613.00
2024-01-11T12:23:33.981Z,618.00
2024-01-11T12:24:33.936Z,609.00
2024-01-11T12:25:33.955Z,610.00